sensor_id;sensor_type;location;lat;lon;timestamp;P1;durP1;ratioP1;P2;durP2;ratioP2
21705;SDS011;11014;53.076;18.208;2023-08-06T00:00:23;5.63;;;4.93;;
21705;SDS011;11014;53.076;18.208;2023-08-06T00:03:13;7.88;;;4.97;;
21705;SDS011;11014;53.076;18.208;2023-08-06T00:05:46;5.05;;;4.53;;
21705;SDS011;11014;53.076;18.208;2023-08-06T00:08:35;4.85;;;4.30;;
21705;SDS011;11014;53.076;18.208;2023-08-06T00:11:07;6.97;;;4.68;;
21705;SDS011;11014;53.076;18.208;2023-08-06T00:13:36;5.43;;;4.57;;
21705;SDS011;11014;53.076;18.208;2023-08-06T00:16:09;6.50;;;4.72;;
21705;SDS011;11014;53.076;18.208;2023-08-06T00:18:41;6.00;;;4.63;;
21705;SDS011;11014;53.076;18.208;2023-08-06T00:21:11;8.38;;;4.90;;
21705;SDS011;11014;53.076;18.208;2023-08-06T00:23:48;7.75;;;4.70;;
21705;SDS011;11014;53.076;18.208;2023-08-06T00:26:20;5.68;;;5.18;;
21705;SDS011;11014;53.076;18.208;2023-08-06T00:28:52;5.93;;;5.13;;
21705;SDS011;11014;53.076;18.208;2023-08-06T00:31:22;6.15;;;4.90;;
21705;SDS011;11014;53.076;18.208;2023-08-06T00:33:59;5.00;;;4.50;;
21705;SDS011;11014;53.076;18.208;2023-08-06T00:36:35;5.65;;;4.75;;
21705;SDS011;11014;53.076;18.208;2023-08-06T00:39:04;7.70;;;4.68;;
21705;SDS011;11014;53.076;18.208;2023-08-06T00:41:38;7.15;;;4.82;;
21705;SDS011;11014;53.076;18.208;2023-08-06T00:44:06;6.90;;;4.60;;
21705;SDS011;11014;53.076;18.208;2023-08-06T00:46:37;6.53;;;4.88;;
21705;SDS011;11014;53.076;18.208;2023-08-06T00:49:10;6.93;;;4.70;;
21705;SDS011;11014;53.076;18.208;2023-08-06T01:10:47;6.70;;;4.80;;
21705;SDS011;11014;53.076;18.208;2023-08-06T01:16:22;9.05;;;5.50;;
21705;SDS011;11014;53.076;18.208;2023-08-06T01:18:52;6.60;;;5.00;;
21705;SDS011;11014;53.076;18.208;2023-08-06T01:21:21;5.90;;;5.30;;
21705;SDS011;11014;53.076;18.208;2023-08-06T01:23:51;8.70;;;5.15;;
21705;SDS011;11014;53.076;18.208;2023-08-06T01:26:27;7.05;;;5.07;;
21705;SDS011;11014;53.076;18.208;2023-08-06T01:29:05;8.30;;;5.82;;
21705;SDS011;11014;53.076;18.208;2023-08-06T01:31:38;6.13;;;5.53;;
21705;SDS011;11014;53.076;18.208;2023-08-06T01:34:13;6.43;;;5.43;;
21705;SDS011;11014;53.076;18.208;2023-08-06T01:36:45;7.65;;;5.50;;
21705;SDS011;11014;53.076;18.208;2023-08-06T01:39:14;7.28;;;5.88;;
21705;SDS011;11014;53.076;18.208;2023-08-06T01:41:43;8.90;;;5.53;;
21705;SDS011;11014;53.076;18.208;2023-08-06T01:44:12;6.30;;;5.70;;
21705;SDS011;11014;53.076;18.208;2023-08-06T01:46:41;7.05;;;5.47;;
21705;SDS011;11014;53.076;18.208;2023-08-06T01:49:12;8.95;;;5.63;;
21705;SDS011;11014;53.076;18.208;2023-08-06T01:51:43;6.85;;;5.78;;
21705;SDS011;11014;53.076;18.208;2023-08-06T01:54:20;7.93;;;5.80;;
21705;SDS011;11014;53.076;18.208;2023-08-06T01:56:49;6.50;;;5.68;;
21705;SDS011;11014;53.076;18.208;2023-08-06T01:59:17;6.30;;;5.50;;
21705;SDS011;11014;53.076;18.208;2023-08-06T02:01:47;6.25;;;5.53;;
21705;SDS011;11014;53.076;18.208;2023-08-06T02:04:19;6.47;;;5.53;;
21705;SDS011;11014;53.076;18.208;2023-08-06T02:06:56;8.95;;;5.85;;
21705;SDS011;11014;53.076;18.208;2023-08-06T02:09:24;6.50;;;5.30;;
21705;SDS011;11014;53.076;18.208;2023-08-06T02:11:53;7.60;;;5.88;;
21705;SDS011;11014;53.076;18.208;2023-08-06T02:14:22;6.88;;;5.90;;
21705;SDS011;11014;53.076;18.208;2023-08-06T02:16:51;8.50;;;5.75;;
21705;SDS011;11014;53.076;18.208;2023-08-06T02:19:26;6.65;;;5.95;;
21705;SDS011;11014;53.076;18.208;2023-08-06T02:21:58;6.32;;;5.57;;
21705;SDS011;11014;53.076;18.208;2023-08-06T02:24:29;8.37;;;5.43;;
21705;SDS011;11014;53.076;18.208;2023-08-06T02:26:58;6.38;;;5.63;;
21705;SDS011;11014;53.076;18.208;2023-08-06T02:29:31;7.10;;;5.40;;
21705;SDS011;11014;53.076;18.208;2023-08-06T02:32:38;8.32;;;6.03;;
21705;SDS011;11014;53.076;18.208;2023-08-06T02:35:12;10.25;;;6.45;;
21705;SDS011;11014;53.076;18.208;2023-08-06T02:38:07;8.13;;;6.13;;
21705;SDS011;11014;53.076;18.208;2023-08-06T02:40:45;7.13;;;6.13;;
21705;SDS011;11014;53.076;18.208;2023-08-06T02:43:41;9.07;;;6.10;;
21705;SDS011;11014;53.076;18.208;2023-08-06T02:46:50;6.90;;;5.90;;
21705;SDS011;11014;53.076;18.208;2023-08-06T02:49:39;7.40;;;6.55;;
21705;SDS011;11014;53.076;18.208;2023-08-06T02:52:22;7.55;;;6.00;;
21705;SDS011;11014;53.076;18.208;2023-08-06T02:55:02;7.28;;;6.57;;
21705;SDS011;11014;53.076;18.208;2023-08-06T02:58:11;9.18;;;6.63;;
21705;SDS011;11014;53.076;18.208;2023-08-06T03:01:37;7.75;;;6.03;;
21705;SDS011;11014;53.076;18.208;2023-08-06T03:04:14;7.07;;;6.22;;
21705;SDS011;11014;53.076;18.208;2023-08-06T03:07:03;7.47;;;6.30;;
21705;SDS011;11014;53.076;18.208;2023-08-06T03:09:46;10.18;;;6.28;;
21705;SDS011;11014;53.076;18.208;2023-08-06T03:12:26;7.10;;;5.82;;
21705;SDS011;11014;53.076;18.208;2023-08-06T03:14:55;8.30;;;6.68;;
21705;SDS011;11014;53.076;18.208;2023-08-06T03:17:34;7.68;;;6.38;;
21705;SDS011;11014;53.076;18.208;2023-08-06T03:20:13;7.80;;;5.57;;
21705;SDS011;11014;53.076;18.208;2023-08-06T03:25:36;6.43;;;5.80;;
21705;SDS011;11014;53.076;18.208;2023-08-06T03:28:18;6.38;;;5.88;;
21705;SDS011;11014;53.076;18.208;2023-08-06T03:31:02;8.98;;;5.75;;
21705;SDS011;11014;53.076;18.208;2023-08-06T03:33:39;6.50;;;5.88;;
21705;SDS011;11014;53.076;18.208;2023-08-06T03:36:15;9.52;;;6.07;;
21705;SDS011;11014;53.076;18.208;2023-08-06T03:38:53;7.03;;;6.13;;
21705;SDS011;11014;53.076;18.208;2023-08-06T03:41:22;7.32;;;6.53;;
21705;SDS011;11014;53.076;18.208;2023-08-06T03:43:53;8.43;;;5.75;;
21705;SDS011;11014;53.076;18.208;2023-08-06T03:46:25;8.18;;;5.82;;
21705;SDS011;11014;53.076;18.208;2023-08-06T03:49:00;10.13;;;6.95;;
21705;SDS011;11014;53.076;18.208;2023-08-06T03:51:38;7.45;;;6.32;;
21705;SDS011;11014;53.076;18.208;2023-08-06T03:54:07;7.68;;;6.68;;
21705;SDS011;11014;53.076;18.208;2023-08-06T03:56:39;7.00;;;6.30;;
21705;SDS011;11014;53.076;18.208;2023-08-06T03:59:16;8.10;;;6.30;;
21705;SDS011;11014;53.076;18.208;2023-08-06T04:02:15;6.88;;;5.40;;
21705;SDS011;11014;53.076;18.208;2023-08-06T04:04:44;7.18;;;5.72;;
21705;SDS011;11014;53.076;18.208;2023-08-06T04:07:13;6.40;;;5.68;;
21705;SDS011;11014;53.076;18.208;2023-08-06T04:09:54;7.50;;;5.90;;
21705;SDS011;11014;53.076;18.208;2023-08-06T04:12:28;5.40;;;4.90;;
21705;SDS011;11014;53.076;18.208;2023-08-06T04:15:11;6.32;;;5.00;;
21705;SDS011;11014;53.076;18.208;2023-08-06T04:18:01;5.57;;;5.07;;
21705;SDS011;11014;53.076;18.208;2023-08-06T04:20:30;5.25;;;4.78;;
21705;SDS011;11014;53.076;18.208;2023-08-06T04:23:18;4.65;;;4.25;;
21705;SDS011;11014;53.076;18.208;2023-08-06T04:25:48;5.65;;;4.10;;
21705;SDS011;11014;53.076;18.208;2023-08-06T04:31:21;4.53;;;4.07;;
21705;SDS011;11014;53.076;18.208;2023-08-06T04:34:01;4.00;;;3.70;;
21705;SDS011;11014;53.076;18.208;2023-08-06T04:36:52;3.67;;;3.38;;
21705;SDS011;11014;53.076;18.208;2023-08-06T04:40:14;3.58;;;3.28;;
21705;SDS011;11014;53.076;18.208;2023-08-06T04:43:38;5.05;;;2.80;;
21705;SDS011;11014;53.076;18.208;2023-08-06T04:47:12;3.40;;;3.10;;
21705;SDS011;11014;53.076;18.208;2023-08-06T04:50:21;4.75;;;3.00;;
21705;SDS011;11014;53.076;18.208;2023-08-06T04:52:57;3.45;;;3.10;;
21705;SDS011;11014;53.076;18.208;2023-08-06T05:00:17;3.45;;;3.15;;
21705;SDS011;11014;53.076;18.208;2023-08-06T05:03:17;3.75;;;3.05;;
21705;SDS011;11014;53.076;18.208;2023-08-06T05:06:27;4.47;;;3.15;;
21705;SDS011;11014;53.076;18.208;2023-08-06T05:09:07;3.95;;;3.35;;
21705;SDS011;11014;53.076;18.208;2023-08-06T05:11:37;3.80;;;3.50;;
21705;SDS011;11014;53.076;18.208;2023-08-06T05:18:40;4.57;;;4.18;;
21705;SDS011;11014;53.076;18.208;2023-08-06T05:38:37;5.45;;;4.85;;
21705;SDS011;11014;53.076;18.208;2023-08-06T06:06:18;5.65;;;5.15;;
21705;SDS011;11014;53.076;18.208;2023-08-06T07:50:33;4.85;;;4.20;;
21705;SDS011;11014;53.076;18.208;2023-08-06T08:03:50;4.65;;;4.20;;
21705;SDS011;11014;53.076;18.208;2023-08-06T08:27:29;4.30;;;4.00;;
21705;SDS011;11014;53.076;18.208;2023-08-06T08:30:06;4.30;;;3.90;;
21705;SDS011;11014;53.076;18.208;2023-08-06T08:32:35;5.15;;;3.90;;
21705;SDS011;11014;53.076;18.208;2023-08-06T08:35:04;5.05;;;4.22;;
21705;SDS011;11014;53.076;18.208;2023-08-06T08:37:35;4.68;;;4.25;;
21705;SDS011;11014;53.076;18.208;2023-08-06T08:40:11;4.80;;;4.03;;
21705;SDS011;11014;53.076;18.208;2023-08-06T08:48:44;5.13;;;4.63;;
21705;SDS011;11014;53.076;18.208;2023-08-06T09:39:14;7.22;;;6.53;;
21705;SDS011;11014;53.076;18.208;2023-08-06T09:41:44;6.93;;;6.22;;
21705;SDS011;11014;53.076;18.208;2023-08-06T09:46:49;6.63;;;5.93;;
21705;SDS011;11014;53.076;18.208;2023-08-06T09:49:19;7.05;;;6.05;;
21705;SDS011;11014;53.076;18.208;2023-08-06T09:51:51;8.43;;;6.28;;
21705;SDS011;11014;53.076;18.208;2023-08-06T09:54:26;8.25;;;6.45;;
21705;SDS011;11014;53.076;18.208;2023-08-06T09:56:57;6.60;;;6.00;;
21705;SDS011;11014;53.076;18.208;2023-08-06T09:59:26;6.35;;;5.75;;
21705;SDS011;11014;53.076;18.208;2023-08-06T10:01:56;6.68;;;5.97;;
21705;SDS011;11014;53.076;18.208;2023-08-06T10:04:28;6.97;;;5.72;;
21705;SDS011;11014;53.076;18.208;2023-08-06T10:07:08;6.45;;;5.80;;
21705;SDS011;11014;53.076;18.208;2023-08-06T10:09:38;6.25;;;5.50;;
21705;SDS011;11014;53.076;18.208;2023-08-06T10:12:07;7.32;;;5.65;;
21705;SDS011;11014;53.076;18.208;2023-08-06T10:14:36;7.10;;;5.78;;
21705;SDS011;11014;53.076;18.208;2023-08-06T10:17:08;9.52;;;5.03;;
21705;SDS011;11014;53.076;18.208;2023-08-06T10:19:37;6.05;;;5.47;;
21705;SDS011;11014;53.076;18.208;2023-08-06T10:22:13;6.07;;;5.57;;
21705;SDS011;11014;53.076;18.208;2023-08-06T10:27:33;5.95;;;5.35;;
21705;SDS011;11014;53.076;18.208;2023-08-06T10:33:01;7.72;;;6.93;;
21705;SDS011;11014;53.076;18.208;2023-08-06T10:35:37;8.02;;;7.25;;
21705;SDS011;11014;53.076;18.208;2023-08-06T10:38:14;7.18;;;6.55;;
21705;SDS011;11014;53.076;18.208;2023-08-06T10:41:00;6.25;;;5.18;;
21705;SDS011;11014;53.076;18.208;2023-08-06T10:44:17;5.07;;;4.68;;
21705;SDS011;11014;53.076;18.208;2023-08-06T10:46:48;5.63;;;5.13;;
21705;SDS011;11014;53.076;18.208;2023-08-06T11:03:05;5.63;;;5.13;;
21705;SDS011;11014;53.076;18.208;2023-08-06T11:05:56;5.95;;;5.43;;
21705;SDS011;11014;53.076;18.208;2023-08-06T11:08:47;5.88;;;4.95;;
21705;SDS011;11014;53.076;18.208;2023-08-06T11:11:24;5.35;;;4.85;;
21705;SDS011;11014;53.076;18.208;2023-08-06T11:14:04;5.43;;;4.88;;
21705;SDS011;11014;53.076;18.208;2023-08-06T11:30:18;7.28;;;6.47;;
21705;SDS011;11014;53.076;18.208;2023-08-06T11:37:38;9.35;;;7.53;;
21705;SDS011;11014;53.076;18.208;2023-08-06T11:40:14;11.30;;;7.55;;
21705;SDS011;11014;53.076;18.208;2023-08-06T11:55:42;10.95;;;9.73;;
21705;SDS011;11014;53.076;18.208;2023-08-06T12:33:57;16.15;;;14.57;;
21705;SDS011;11014;53.076;18.208;2023-08-06T12:36:26;20.55;;;15.10;;
21705;SDS011;11014;53.076;18.208;2023-08-06T12:38:54;17.65;;;15.27;;
21705;SDS011;11014;53.076;18.208;2023-08-06T12:41:23;17.98;;;15.13;;
21705;SDS011;11014;53.076;18.208;2023-08-06T12:43:53;17.35;;;15.55;;
21705;SDS011;11014;53.076;18.208;2023-08-06T12:46:24;23.60;;;15.80;;
21705;SDS011;11014;53.076;18.208;2023-08-06T12:48:53;17.17;;;15.10;;
21705;SDS011;11014;53.076;18.208;2023-08-06T12:51:22;17.85;;;15.88;;
21705;SDS011;11014;53.076;18.208;2023-08-06T12:53:51;17.10;;;15.30;;
21705;SDS011;11014;53.076;18.208;2023-08-06T13:28:04;16.65;;;14.95;;
21705;SDS011;11014;53.076;18.208;2023-08-06T13:30:33;17.67;;;14.65;;
21705;SDS011;11014;53.076;18.208;2023-08-06T13:33:06;18.50;;;15.80;;
21705;SDS011;11014;53.076;18.208;2023-08-06T13:35:47;19.90;;;16.00;;
21705;SDS011;11014;53.076;18.208;2023-08-06T13:38:17;19.52;;;16.67;;
21705;SDS011;11014;53.076;18.208;2023-08-06T13:40:47;17.65;;;15.25;;
21705;SDS011;11014;53.076;18.208;2023-08-06T13:43:16;18.65;;;16.45;;
21705;SDS011;11014;53.076;18.208;2023-08-06T13:45:52;20.33;;;16.50;;
21705;SDS011;11014;53.076;18.208;2023-08-06T13:48:22;21.10;;;17.40;;
21705;SDS011;11014;53.076;18.208;2023-08-06T13:50:59;19.17;;;17.17;;
21705;SDS011;11014;53.076;18.208;2023-08-06T13:53:37;18.85;;;16.65;;
21705;SDS011;11014;53.076;18.208;2023-08-06T13:56:06;20.15;;;17.98;;
21705;SDS011;11014;53.076;18.208;2023-08-06T13:58:36;20.38;;;17.95;;
21705;SDS011;11014;53.076;18.208;2023-08-06T14:02:08;22.05;;;18.48;;
21705;SDS011;11014;53.076;18.208;2023-08-06T14:05:09;20.35;;;18.25;;
21705;SDS011;11014;53.076;18.208;2023-08-06T14:08:42;20.23;;;18.13;;
21705;SDS011;11014;53.076;18.208;2023-08-06T14:12:10;23.70;;;19.25;;
21705;SDS011;11014;53.076;18.208;2023-08-06T14:15:59;24.10;;;21.50;;
21705;SDS011;11014;53.076;18.208;2023-08-06T14:18:59;23.65;;;20.58;;
21705;SDS011;11014;53.076;18.208;2023-08-06T14:21:50;23.67;;;21.30;;
21705;SDS011;11014;53.076;18.208;2023-08-06T14:24:56;23.45;;;21.05;;
21705;SDS011;11014;53.076;18.208;2023-08-06T14:28:07;24.50;;;21.75;;
21705;SDS011;11014;53.076;18.208;2023-08-06T14:30:39;23.38;;;20.88;;
21705;SDS011;11014;53.076;18.208;2023-08-06T14:33:57;21.08;;;15.32;;
21705;SDS011;11014;53.076;18.208;2023-08-06T14:37:30;11.25;;;10.02;;
21705;SDS011;11014;53.076;18.208;2023-08-06T14:40:28;12.27;;;9.20;;
21705;SDS011;11014;53.076;18.208;2023-08-06T14:43:12;8.27;;;7.47;;
21705;SDS011;11014;53.076;18.208;2023-08-06T14:46:45;7.85;;;7.10;;
21705;SDS011;11014;53.076;18.208;2023-08-06T14:49:32;7.53;;;4.80;;
21705;SDS011;11014;53.076;18.208;2023-08-06T14:53:17;5.60;;;4.57;;
21705;SDS011;11014;53.076;18.208;2023-08-06T14:55:48;6.03;;;5.40;;
21705;SDS011;11014;53.076;18.208;2023-08-06T14:58:17;6.20;;;5.47;;
21705;SDS011;11014;53.076;18.208;2023-08-06T15:00:47;5.50;;;5.00;;
21705;SDS011;11014;53.076;18.208;2023-08-06T15:03:18;6.32;;;4.88;;
21705;SDS011;11014;53.076;18.208;2023-08-06T15:05:48;4.90;;;4.50;;
21705;SDS011;11014;53.076;18.208;2023-08-06T15:08:33;3.40;;;3.10;;
21705;SDS011;11014;53.076;18.208;2023-08-06T15:11:12;3.03;;;2.75;;
21705;SDS011;11014;53.076;18.208;2023-08-06T15:14:06;4.40;;;2.20;;
21705;SDS011;11014;53.076;18.208;2023-08-06T15:17:06;2.00;;;1.77;;
21705;SDS011;11014;53.076;18.208;2023-08-06T15:19:41;2.55;;;1.30;;
21705;SDS011;11014;53.076;18.208;2023-08-06T15:22:09;1.30;;;1.20;;
21705;SDS011;11014;53.076;18.208;2023-08-06T15:25:01;1.30;;;1.20;;
21705;SDS011;11014;53.076;18.208;2023-08-06T15:27:34;1.70;;;1.17;;
21705;SDS011;11014;53.076;18.208;2023-08-06T15:30:04;1.60;;;0.93;;
21705;SDS011;11014;53.076;18.208;2023-08-06T15:32:35;5.38;;;1.20;;
21705;SDS011;11014;53.076;18.208;2023-08-06T15:40:08;1.20;;;1.00;;
21705;SDS011;11014;53.076;18.208;2023-08-06T15:42:37;0.98;;;0.70;;
21705;SDS011;11014;53.076;18.208;2023-08-06T15:45:08;0.65;;;0.65;;
21705;SDS011;11014;53.076;18.208;2023-08-06T15:47:38;0.52;;;0.52;;
21705;SDS011;11014;53.076;18.208;2023-08-06T15:50:09;1.17;;;0.70;;
21705;SDS011;11014;53.076;18.208;2023-08-06T15:53:48;1.55;;;0.60;;
21705;SDS011;11014;53.076;18.208;2023-08-06T16:01:48;0.70;;;0.70;;
21705;SDS011;11014;53.076;18.208;2023-08-06T16:05:24;1.60;;;0.80;;
21705;SDS011;11014;53.076;18.208;2023-08-06T16:08:48;0.98;;;0.90;;
21705;SDS011;11014;53.076;18.208;2023-08-06T16:12:05;2.33;;;0.70;;
21705;SDS011;11014;53.076;18.208;2023-08-06T16:15:23;0.95;;;0.80;;
21705;SDS011;11014;53.076;18.208;2023-08-06T16:17:53;1.10;;;1.00;;
21705;SDS011;11014;53.076;18.208;2023-08-06T16:20:23;1.15;;;0.90;;
21705;SDS011;11014;53.076;18.208;2023-08-06T16:22:52;2.30;;;1.00;;
21705;SDS011;11014;53.076;18.208;2023-08-06T16:25:21;0.80;;;0.80;;
21705;SDS011;11014;53.076;18.208;2023-08-06T16:27:49;1.83;;;1.23;;
21705;SDS011;11014;53.076;18.208;2023-08-06T16:30:18;0.80;;;0.80;;
21705;SDS011;11014;53.076;18.208;2023-08-06T16:32:47;1.40;;;0.82;;
21705;SDS011;11014;53.076;18.208;2023-08-06T16:35:16;0.90;;;0.90;;
21705;SDS011;11014;53.076;18.208;2023-08-06T16:37:45;1.17;;;1.00;;
21705;SDS011;11014;53.076;18.208;2023-08-06T16:40:15;1.05;;;1.00;;
21705;SDS011;11014;53.076;18.208;2023-08-06T16:42:46;1.10;;;1.00;;
21705;SDS011;11014;53.076;18.208;2023-08-06T16:45:15;0.77;;;0.77;;
21705;SDS011;11014;53.076;18.208;2023-08-06T16:47:43;1.60;;;1.10;;
21705;SDS011;11014;53.076;18.208;2023-08-06T16:50:12;1.15;;;0.90;;
21705;SDS011;11014;53.076;18.208;2023-08-06T16:52:41;2.15;;;0.80;;
21705;SDS011;11014;53.076;18.208;2023-08-06T16:55:10;1.00;;;1.00;;
21705;SDS011;11014;53.076;18.208;2023-08-06T16:57:38;1.83;;;0.95;;
21705;SDS011;11014;53.076;18.208;2023-08-06T17:00:08;4.32;;;1.15;;
21705;SDS011;11014;53.076;18.208;2023-08-06T17:02:37;1.30;;;1.20;;
21705;SDS011;11014;53.076;18.208;2023-08-06T17:05:06;1.02;;;1.00;;
21705;SDS011;11014;53.076;18.208;2023-08-06T17:07:35;1.02;;;0.90;;
21705;SDS011;11014;53.076;18.208;2023-08-06T17:10:04;1.35;;;1.13;;
21705;SDS011;11014;53.076;18.208;2023-08-06T17:12:33;1.42;;;0.85;;
21705;SDS011;11014;53.076;18.208;2023-08-06T17:15:05;1.10;;;1.00;;
21705;SDS011;11014;53.076;18.208;2023-08-06T17:25:30;0.80;;;0.80;;
21705;SDS011;11014;53.076;18.208;2023-08-06T17:28:10;2.08;;;1.00;;
21705;SDS011;11014;53.076;18.208;2023-08-06T17:35:17;1.70;;;1.20;;
21705;SDS011;11014;53.076;18.208;2023-08-06T17:42:10;2.78;;;2.20;;
21705;SDS011;11014;53.076;18.208;2023-08-06T17:45:25;2.15;;;1.60;;
21705;SDS011;11014;53.076;18.208;2023-08-06T17:47:53;1.10;;;1.00;;
21705;SDS011;11014;53.076;18.208;2023-08-06T17:50:30;1.58;;;0.90;;
21705;SDS011;11014;53.076;18.208;2023-08-06T17:53:09;1.10;;;0.90;;
21705;SDS011;11014;53.076;18.208;2023-08-06T17:56:02;1.10;;;1.00;;
21705;SDS011;11014;53.076;18.208;2023-08-06T17:59:15;2.40;;;1.75;;
21705;SDS011;11014;53.076;18.208;2023-08-06T20:28:26;1.80;;;0.50;;
21705;SDS011;11014;53.076;18.208;2023-08-06T20:35:40;0.43;;;0.40;;
21705;SDS011;11014;53.076;18.208;2023-08-06T20:39:10;2.83;;;0.40;;
21705;SDS011;11014;53.076;18.208;2023-08-06T20:42:37;0.50;;;0.50;;
21705;SDS011;11014;53.076;18.208;2023-08-06T20:58:17;1.10;;;0.40;;
21705;SDS011;11014;53.076;18.208;2023-08-06T21:05:39;0.73;;;0.50;;
21705;SDS011;11014;53.076;18.208;2023-08-06T21:08:54;1.30;;;0.70;;
21705;SDS011;11014;53.076;18.208;2023-08-06T21:12:39;1.05;;;0.65;;
21705;SDS011;11014;53.076;18.208;2023-08-06T21:16:10;0.60;;;0.60;;
21705;SDS011;11014;53.076;18.208;2023-08-06T21:19:03;1.35;;;0.40;;
21705;SDS011;11014;53.076;18.208;2023-08-06T21:21:56;0.40;;;0.40;;
21705;SDS011;11014;53.076;18.208;2023-08-06T21:24:27;0.50;;;0.50;;
21705;SDS011;11014;53.076;18.208;2023-08-06T21:27:13;0.88;;;0.40;;
21705;SDS011;11014;53.076;18.208;2023-08-06T21:29:43;2.40;;;0.70;;
21705;SDS011;11014;53.076;18.208;2023-08-06T21:32:14;3.55;;;1.75;;
21705;SDS011;11014;53.076;18.208;2023-08-06T21:34:46;0.60;;;0.60;;
21705;SDS011;11014;53.076;18.208;2023-08-06T21:37:25;1.75;;;0.50;;
21705;SDS011;11014;53.076;18.208;2023-08-06T21:39:54;1.17;;;0.38;;
21705;SDS011;11014;53.076;18.208;2023-08-06T21:42:43;0.55;;;0.40;;
21705;SDS011;11014;53.076;18.208;2023-08-06T21:45:14;1.48;;;0.40;;
21705;SDS011;11014;53.076;18.208;2023-08-06T21:51:40;0.30;;;0.30;;
21705;SDS011;11014;53.076;18.208;2023-08-06T21:54:29;0.70;;;0.32;;
21705;SDS011;11014;53.076;18.208;2023-08-06T21:57:11;0.85;;;0.30;;
21705;SDS011;11014;53.076;18.208;2023-08-06T21:59:54;1.10;;;0.50;;
21705;SDS011;11014;53.076;18.208;2023-08-06T22:02:29;1.60;;;0.40;;
21705;SDS011;11014;53.076;18.208;2023-08-06T22:05:10;2.45;;;0.60;;
21705;SDS011;11014;53.076;18.208;2023-08-06T22:07:44;2.33;;;0.40;;
21705;SDS011;11014;53.076;18.208;2023-08-06T22:10:15;0.70;;;0.43;;
21705;SDS011;11014;53.076;18.208;2023-08-06T22:12:57;1.35;;;0.68;;
21705;SDS011;11014;53.076;18.208;2023-08-06T22:15:56;2.80;;;0.52;;
21705;SDS011;11014;53.076;18.208;2023-08-06T22:18:26;0.80;;;0.57;;
21705;SDS011;11014;53.076;18.208;2023-08-06T22:20:58;1.80;;;0.50;;
21705;SDS011;11014;53.076;18.208;2023-08-06T22:23:30;0.50;;;0.50;;
21705;SDS011;11014;53.076;18.208;2023-08-06T22:25:59;2.35;;;0.70;;
21705;SDS011;11014;53.076;18.208;2023-08-06T22:28:28;0.77;;;0.77;;
21705;SDS011;11014;53.076;18.208;2023-08-06T22:31:03;1.02;;;0.68;;
21705;SDS011;11014;53.076;18.208;2023-08-06T22:33:33;1.30;;;0.70;;
21705;SDS011;11014;53.076;18.208;2023-08-06T22:36:20;1.05;;;0.80;;
21705;SDS011;11014;53.076;18.208;2023-08-06T22:38:51;0.80;;;0.80;;
21705;SDS011;11014;53.076;18.208;2023-08-06T22:41:36;1.75;;;0.82;;
21705;SDS011;11014;53.076;18.208;2023-08-06T22:44:20;1.58;;;1.05;;
21705;SDS011;11014;53.076;18.208;2023-08-06T22:46:51;1.67;;;1.02;;
21705;SDS011;11014;53.076;18.208;2023-08-06T22:49:23;2.25;;;0.80;;
21705;SDS011;11014;53.076;18.208;2023-08-06T22:51:52;1.38;;;1.15;;
21705;SDS011;11014;53.076;18.208;2023-08-06T22:54:21;2.42;;;1.50;;
21705;SDS011;11014;53.076;18.208;2023-08-06T22:56:55;2.25;;;1.60;;
21705;SDS011;11014;53.076;18.208;2023-08-06T22:59:26;1.73;;;1.23;;
21705;SDS011;11014;53.076;18.208;2023-08-06T23:02:29;2.35;;;1.80;;
21705;SDS011;11014;53.076;18.208;2023-08-06T23:04:58;1.85;;;1.60;;
21705;SDS011;11014;53.076;18.208;2023-08-06T23:07:28;4.13;;;1.90;;
21705;SDS011;11014;53.076;18.208;2023-08-06T23:10:02;3.95;;;1.80;;
21705;SDS011;11014;53.076;18.208;2023-08-06T23:12:33;5.50;;;1.75;;
21705;SDS011;11014;53.076;18.208;2023-08-06T23:15:06;3.70;;;1.80;;
21705;SDS011;11014;53.076;18.208;2023-08-06T23:17:56;6.10;;;2.30;;
21705;SDS011;11014;53.076;18.208;2023-08-06T23:20:35;2.17;;;1.45;;
21705;SDS011;11014;53.076;18.208;2023-08-06T23:23:10;1.80;;;1.60;;
21705;SDS011;11014;53.076;18.208;2023-08-06T23:25:40;2.63;;;1.58;;
21705;SDS011;11014;53.076;18.208;2023-08-06T23:28:25;2.47;;;1.67;;
21705;SDS011;11014;53.076;18.208;2023-08-06T23:31:02;3.83;;;1.20;;
21705;SDS011;11014;53.076;18.208;2023-08-06T23:33:39;1.70;;;1.40;;
21705;SDS011;11014;53.076;18.208;2023-08-06T23:36:46;2.92;;;2.25;;
21705;SDS011;11014;53.076;18.208;2023-08-06T23:39:21;2.75;;;1.38;;
21705;SDS011;11014;53.076;18.208;2023-08-06T23:42:31;3.90;;;1.80;;
21705;SDS011;11014;53.076;18.208;2023-08-06T23:45:10;2.03;;;1.42;;
21705;SDS011;11014;53.076;18.208;2023-08-06T23:48:02;2.17;;;1.55;;
21705;SDS011;11014;53.076;18.208;2023-08-06T23:50:38;2.95;;;1.70;;
21705;SDS011;11014;53.076;18.208;2023-08-06T23:53:50;2.28;;;1.63;;
